sensor_id;sensor_type;location;lat;lon;timestamp;temperature;humidity
22769;DHT22;13001;51.968;5.918;2024-03-06T00:00:37;8.90;99.90
22769;DHT22;13001;51.968;5.918;2024-03-06T00:03:05;8.80;99.90
22769;DHT22;13001;51.968;5.918;2024-03-06T00:05:32;8.80;99.90
22769;DHT22;13001;51.968;5.918;2024-03-06T00:08:00;8.70;99.90
22769;DHT22;13001;51.968;5.918;2024-03-06T00:10:30;8.70;99.90
22769;DHT22;13001;51.968;5.918;2024-03-06T00:12:57;8.70;99.90
22769;DHT22;13001;51.968;5.918;2024-03-06T00:15:25;8.70;99.90
22769;DHT22;13001;51.968;5.918;2024-03-06T00:17:54;8.70;99.90
22769;DHT22;13001;51.968;5.918;2024-03-06T00:20:21;8.70;99.90
22769;DHT22;13001;51.968;5.918;2024-03-06T00:22:49;8.60;99.90
22769;DHT22;13001;51.968;5.918;2024-03-06T00:25:16;8.60;99.90
22769;DHT22;13001;51.968;5.918;2024-03-06T00:27:44;8.50;99.90
22769;DHT22;13001;51.968;5.918;2024-03-06T00:30:13;8.50;99.90
22769;DHT22;13001;51.968;5.918;2024-03-06T00:32:40;8.50;99.90
22769;DHT22;13001;51.968;5.918;2024-03-06T00:35:08;8.40;99.90
22769;DHT22;13001;51.968;5.918;2024-03-06T00:37:35;8.40;99.90
22769;DHT22;13001;51.968;5.918;2024-03-06T00:40:03;8.40;99.90
22769;DHT22;13001;51.968;5.918;2024-03-06T00:42:31;8.40;99.90
22769;DHT22;13001;51.968;5.918;2024-03-06T00:44:59;8.40;99.90
22769;DHT22;13001;51.968;5.918;2024-03-06T00:47:28;8.30;99.90
22769;DHT22;13001;51.968;5.918;2024-03-06T00:49:56;8.30;99.90
22769;DHT22;13001;51.968;5.918;2024-03-06T00:52:24;8.30;99.90
22769;DHT22;13001;51.968;5.918;2024-03-06T00:54:51;8.20;99.90
22769;DHT22;13001;51.968;5.918;2024-03-06T00:57:19;8.10;99.90
22769;DHT22;13001;51.968;5.918;2024-03-06T00:59:46;8.10;99.90
22769;DHT22;13001;51.968;5.918;2024-03-06T01:02:14;8.10;99.90
22769;DHT22;13001;51.968;5.918;2024-03-06T01:04:41;8.00;99.90
22769;DHT22;13001;51.968;5.918;2024-03-06T01:07:09;8.00;99.90
22769;DHT22;13001;51.968;5.918;2024-03-06T01:09:37;8.00;99.90
22769;DHT22;13001;51.968;5.918;2024-03-06T01:12:05;8.00;99.90
22769;DHT22;13001;51.968;5.918;2024-03-06T01:14:32;7.90;99.90
22769;DHT22;13001;51.968;5.918;2024-03-06T01:17:00;7.90;99.90
22769;DHT22;13001;51.968;5.918;2024-03-06T01:19:28;7.90;99.90
22769;DHT22;13001;51.968;5.918;2024-03-06T01:21:56;7.90;99.90
22769;DHT22;13001;51.968;5.918;2024-03-06T01:24:23;7.90;99.90
22769;DHT22;13001;51.968;5.918;2024-03-06T01:26:51;7.90;99.90
22769;DHT22;13001;51.968;5.918;2024-03-06T01:29:18;7.90;99.90
22769;DHT22;13001;51.968;5.918;2024-03-06T01:31:46;7.90;99.90
22769;DHT22;13001;51.968;5.918;2024-03-06T01:34:13;7.90;99.90
22769;DHT22;13001;51.968;5.918;2024-03-06T01:36:41;7.90;99.90
22769;DHT22;13001;51.968;5.918;2024-03-06T01:39:08;7.90;99.90
22769;DHT22;13001;51.968;5.918;2024-03-06T01:41:36;7.90;99.90
22769;DHT22;13001;51.968;5.918;2024-03-06T01:44:03;7.90;99.90
22769;DHT22;13001;51.968;5.918;2024-03-06T01:46:31;7.90;99.90
22769;DHT22;13001;51.968;5.918;2024-03-06T01:48:59;7.90;99.90
22769;DHT22;13001;51.968;5.918;2024-03-06T01:51:26;7.90;99.90
22769;DHT22;13001;51.968;5.918;2024-03-06T01:53:54;7.80;99.90
22769;DHT22;13001;51.968;5.918;2024-03-06T01:56:22;7.80;99.90
22769;DHT22;13001;51.968;5.918;2024-03-06T01:58:50;7.80;99.90
22769;DHT22;13001;51.968;5.918;2024-03-06T02:01:18;7.70;99.90
22769;DHT22;13001;51.968;5.918;2024-03-06T02:03:46;7.70;99.90
22769;DHT22;13001;51.968;5.918;2024-03-06T02:06:14;7.60;99.90
22769;DHT22;13001;51.968;5.918;2024-03-06T02:08:43;7.60;99.90
22769;DHT22;13001;51.968;5.918;2024-03-06T02:11:11;7.60;99.90
22769;DHT22;13001;51.968;5.918;2024-03-06T02:13:40;7.60;99.90
22769;DHT22;13001;51.968;5.918;2024-03-06T02:16:08;7.50;99.90
22769;DHT22;13001;51.968;5.918;2024-03-06T02:18:37;7.50;99.90
22769;DHT22;13001;51.968;5.918;2024-03-06T02:21:07;7.50;99.90
22769;DHT22;13001;51.968;5.918;2024-03-06T02:23:34;7.40;99.90
22769;DHT22;13001;51.968;5.918;2024-03-06T02:26:02;7.40;99.90
22769;DHT22;13001;51.968;5.918;2024-03-06T02:28:29;7.40;99.90
22769;DHT22;13001;51.968;5.918;2024-03-06T02:30:57;7.40;99.90
22769;DHT22;13001;51.968;5.918;2024-03-06T02:33:25;7.40;99.90
22769;DHT22;13001;51.968;5.918;2024-03-06T02:35:53;7.30;99.90
22769;DHT22;13001;51.968;5.918;2024-03-06T02:38:21;7.30;99.90
22769;DHT22;13001;51.968;5.918;2024-03-06T02:40:48;7.30;99.90
22769;DHT22;13001;51.968;5.918;2024-03-06T02:43:15;7.30;99.90
22769;DHT22;13001;51.968;5.918;2024-03-06T02:45:42;7.20;99.90
22769;DHT22;13001;51.968;5.918;2024-03-06T02:48:09;7.00;99.90
22769;DHT22;13001;51.968;5.918;2024-03-06T02:50:36;6.80;99.90
22769;DHT22;13001;51.968;5.918;2024-03-06T02:53:04;6.70;99.90
22769;DHT22;13001;51.968;5.918;2024-03-06T02:55:31;6.60;99.90
22769;DHT22;13001;51.968;5.918;2024-03-06T02:58:03;6.60;99.90
22769;DHT22;13001;51.968;5.918;2024-03-06T03:00:30;6.50;99.90
22769;DHT22;13001;51.968;5.918;2024-03-06T03:02:58;6.50;99.90
22769;DHT22;13001;51.968;5.918;2024-03-06T03:05:25;6.50;99.90
22769;DHT22;13001;51.968;5.918;2024-03-06T03:07:55;6.60;99.90
22769;DHT22;13001;51.968;5.918;2024-03-06T03:10:22;6.70;99.90
22769;DHT22;13001;51.968;5.918;2024-03-06T03:12:51;6.70;99.90
22769;DHT22;13001;51.968;5.918;2024-03-06T03:15:19;6.80;99.90
22769;DHT22;13001;51.968;5.918;2024-03-06T03:17:47;6.80;99.90
22769;DHT22;13001;51.968;5.918;2024-03-06T03:20:15;6.80;99.90
22769;DHT22;13001;51.968;5.918;2024-03-06T03:22:43;6.80;99.90
22769;DHT22;13001;51.968;5.918;2024-03-06T03:25:12;6.80;99.90
22769;DHT22;13001;51.968;5.918;2024-03-06T03:27:40;6.80;99.90
22769;DHT22;13001;51.968;5.918;2024-03-06T03:30:13;6.80;99.90
22769;DHT22;13001;51.968;5.918;2024-03-06T03:32:42;6.70;99.90
22769;DHT22;13001;51.968;5.918;2024-03-06T03:35:09;6.80;99.90
22769;DHT22;13001;51.968;5.918;2024-03-06T03:37:37;6.80;99.90
22769;DHT22;13001;51.968;5.918;2024-03-06T03:40:06;6.80;99.90
22769;DHT22;13001;51.968;5.918;2024-03-06T03:42:34;6.80;99.90
22769;DHT22;13001;51.968;5.918;2024-03-06T03:45:01;6.80;99.90
22769;DHT22;13001;51.968;5.918;2024-03-06T03:47:30;6.80;99.90
22769;DHT22;13001;51.968;5.918;2024-03-06T03:49:58;6.80;99.90
22769;DHT22;13001;51.968;5.918;2024-03-06T03:52:26;6.70;99.90
22769;DHT22;13001;51.968;5.918;2024-03-06T03:54:53;6.60;99.90
22769;DHT22;13001;51.968;5.918;2024-03-06T03:57:21;6.60;99.90
22769;DHT22;13001;51.968;5.918;2024-03-06T03:59:49;6.50;99.90
22769;DHT22;13001;51.968;5.918;2024-03-06T04:02:17;6.50;99.90
22769;DHT22;13001;51.968;5.918;2024-03-06T04:04:45;6.50;99.90
22769;DHT22;13001;51.968;5.918;2024-03-06T04:07:13;6.50;99.90
22769;DHT22;13001;51.968;5.918;2024-03-06T04:09:42;6.50;99.90
22769;DHT22;13001;51.968;5.918;2024-03-06T04:12:09;6.50;99.90
22769;DHT22;13001;51.968;5.918;2024-03-06T04:14:37;6.50;99.90
22769;DHT22;13001;51.968;5.918;2024-03-06T04:17:05;6.50;99.90
22769;DHT22;13001;51.968;5.918;2024-03-06T04:19:32;6.50;99.90
22769;DHT22;13001;51.968;5.918;2024-03-06T04:22:00;6.50;99.90
22769;DHT22;13001;51.968;5.918;2024-03-06T04:24:27;6.50;99.90
22769;DHT22;13001;51.968;5.918;2024-03-06T04:26:55;6.50;99.90
22769;DHT22;13001;51.968;5.918;2024-03-06T04:29:23;6.50;99.90
22769;DHT22;13001;51.968;5.918;2024-03-06T04:31:50;6.50;99.90
22769;DHT22;13001;51.968;5.918;2024-03-06T04:34:18;6.40;99.90
22769;DHT22;13001;51.968;5.918;2024-03-06T04:36:46;6.40;99.90
22769;DHT22;13001;51.968;5.918;2024-03-06T04:39:13;6.40;99.90
22769;DHT22;13001;51.968;5.918;2024-03-06T04:41:41;6.40;99.90
22769;DHT22;13001;51.968;5.918;2024-03-06T04:44:08;6.30;99.90
22769;DHT22;13001;51.968;5.918;2024-03-06T04:46:38;6.30;99.90
22769;DHT22;13001;51.968;5.918;2024-03-06T04:49:05;6.30;99.90
22769;DHT22;13001;51.968;5.918;2024-03-06T04:51:33;6.30;99.90
22769;DHT22;13001;51.968;5.918;2024-03-06T04:54:00;6.30;99.90
22769;DHT22;13001;51.968;5.918;2024-03-06T04:56:28;6.30;99.90
22769;DHT22;13001;51.968;5.918;2024-03-06T04:58:55;6.30;99.90
22769;DHT22;13001;51.968;5.918;2024-03-06T05:01:23;6.30;99.90
22769;DHT22;13001;51.968;5.918;2024-03-06T05:03:50;6.30;99.90
22769;DHT22;13001;51.968;5.918;2024-03-06T05:06:18;6.20;99.90
22769;DHT22;13001;51.968;5.918;2024-03-06T05:08:45;6.20;99.90
22769;DHT22;13001;51.968;5.918;2024-03-06T05:11:13;6.20;99.90
22769;DHT22;13001;51.968;5.918;2024-03-06T05:13:40;6.20;99.90
22769;DHT22;13001;51.968;5.918;2024-03-06T05:16:08;6.20;99.90
22769;DHT22;13001;51.968;5.918;2024-03-06T05:18:35;6.20;99.90
22769;DHT22;13001;51.968;5.918;2024-03-06T05:21:03;6.10;99.90
22769;DHT22;13001;51.968;5.918;2024-03-06T05:23:33;6.10;99.90
22769;DHT22;13001;51.968;5.918;2024-03-06T05:26:01;6.10;99.90
22769;DHT22;13001;51.968;5.918;2024-03-06T05:28:29;6.10;99.90
22769;DHT22;13001;51.968;5.918;2024-03-06T05:30:57;6.10;99.90
22769;DHT22;13001;51.968;5.918;2024-03-06T05:33:24;6.10;99.90
22769;DHT22;13001;51.968;5.918;2024-03-06T05:35:53;6.20;99.90
22769;DHT22;13001;51.968;5.918;2024-03-06T05:38:20;6.10;99.90
22769;DHT22;13001;51.968;5.918;2024-03-06T05:40:48;6.00;99.90
22769;DHT22;13001;51.968;5.918;2024-03-06T05:43:16;5.90;99.90
22769;DHT22;13001;51.968;5.918;2024-03-06T05:45:43;5.90;99.90
22769;DHT22;13001;51.968;5.918;2024-03-06T05:48:11;5.80;99.90
22769;DHT22;13001;51.968;5.918;2024-03-06T05:50:39;5.80;99.90
22769;DHT22;13001;51.968;5.918;2024-03-06T05:53:07;5.80;99.90
22769;DHT22;13001;51.968;5.918;2024-03-06T05:55:35;5.80;99.90
22769;DHT22;13001;51.968;5.918;2024-03-06T05:58:03;5.80;99.90
22769;DHT22;13001;51.968;5.918;2024-03-06T06:00:33;5.70;99.90
22769;DHT22;13001;51.968;5.918;2024-03-06T06:03:01;5.70;99.90
22769;DHT22;13001;51.968;5.918;2024-03-06T06:05:28;5.60;99.90
22769;DHT22;13001;51.968;5.918;2024-03-06T06:07:56;5.60;99.90
22769;DHT22;13001;51.968;5.918;2024-03-06T06:10:23;5.60;99.90
22769;DHT22;13001;51.968;5.918;2024-03-06T06:12:51;5.60;99.90
22769;DHT22;13001;51.968;5.918;2024-03-06T06:15:19;5.60;99.90
22769;DHT22;13001;51.968;5.918;2024-03-06T06:17:47;5.60;99.90
22769;DHT22;13001;51.968;5.918;2024-03-06T06:20:17;5.60;99.90
22769;DHT22;13001;51.968;5.918;2024-03-06T06:22:45;5.60;99.90
22769;DHT22;13001;51.968;5.918;2024-03-06T06:25:13;5.60;99.90
22769;DHT22;13001;51.968;5.918;2024-03-06T06:27:42;5.60;99.90
22769;DHT22;13001;51.968;5.918;2024-03-06T06:30:10;5.60;99.90
22769;DHT22;13001;51.968;5.918;2024-03-06T06:32:39;5.60;99.90
22769;DHT22;13001;51.968;5.918;2024-03-06T06:35:07;5.70;99.90
22769;DHT22;13001;51.968;5.918;2024-03-06T06:37:37;5.70;99.90
22769;DHT22;13001;51.968;5.918;2024-03-06T06:40:06;5.70;99.90
22769;DHT22;13001;51.968;5.918;2024-03-06T06:42:35;5.70;99.90
22769;DHT22;13001;51.968;5.918;2024-03-06T06:45:02;5.70;99.90
22769;DHT22;13001;51.968;5.918;2024-03-06T06:47:39;5.70;99.90
22769;DHT22;13001;51.968;5.918;2024-03-06T06:50:07;5.80;99.90
22769;DHT22;13001;51.968;5.918;2024-03-06T06:52:35;5.80;99.90
22769;DHT22;13001;51.968;5.918;2024-03-06T06:55:03;5.90;99.90
22769;DHT22;13001;51.968;5.918;2024-03-06T06:57:32;6.00;99.90
22769;DHT22;13001;51.968;5.918;2024-03-06T07:00:02;6.20;99.90
22769;DHT22;13001;51.968;5.918;2024-03-06T07:02:31;6.30;99.90
22769;DHT22;13001;51.968;5.918;2024-03-06T07:04:59;6.30;99.90
22769;DHT22;13001;51.968;5.918;2024-03-06T07:07:26;6.30;99.90
22769;DHT22;13001;51.968;5.918;2024-03-06T07:09:54;6.40;99.90
22769;DHT22;13001;51.968;5.918;2024-03-06T07:12:21;6.40;99.90
22769;DHT22;13001;51.968;5.918;2024-03-06T07:14:49;6.40;99.90
22769;DHT22;13001;51.968;5.918;2024-03-06T07:17:16;6.50;99.90
22769;DHT22;13001;51.968;5.918;2024-03-06T07:19:44;6.60;99.90
22769;DHT22;13001;51.968;5.918;2024-03-06T07:22:11;6.80;99.90
22769;DHT22;13001;51.968;5.918;2024-03-06T07:24:39;6.90;99.90
22769;DHT22;13001;51.968;5.918;2024-03-06T07:27:08;7.00;99.90
22769;DHT22;13001;51.968;5.918;2024-03-06T07:29:38;7.10;99.90
22769;DHT22;13001;51.968;5.918;2024-03-06T07:32:07;7.20;99.90
22769;DHT22;13001;51.968;5.918;2024-03-06T07:34:35;7.30;99.90
22769;DHT22;13001;51.968;5.918;2024-03-06T07:37:02;7.30;99.90
22769;DHT22;13001;51.968;5.918;2024-03-06T07:39:30;7.30;99.90
22769;DHT22;13001;51.968;5.918;2024-03-06T07:42:01;7.30;99.90
22769;DHT22;13001;51.968;5.918;2024-03-06T07:44:29;7.40;99.90
22769;DHT22;13001;51.968;5.918;2024-03-06T07:46:56;7.40;99.90
22769;DHT22;13001;51.968;5.918;2024-03-06T07:49:24;7.40;99.90
22769;DHT22;13001;51.968;5.918;2024-03-06T07:51:51;7.50;99.90
22769;DHT22;13001;51.968;5.918;2024-03-06T07:54:20;7.60;99.90
22769;DHT22;13001;51.968;5.918;2024-03-06T07:56:47;7.70;99.90
22769;DHT22;13001;51.968;5.918;2024-03-06T07:59:15;7.80;99.90
22769;DHT22;13001;51.968;5.918;2024-03-06T08:01:44;7.90;99.90
22769;DHT22;13001;51.968;5.918;2024-03-06T08:04:12;8.00;99.90
22769;DHT22;13001;51.968;5.918;2024-03-06T08:06:40;8.10;99.90
22769;DHT22;13001;51.968;5.918;2024-03-06T08:09:07;8.10;99.90
22769;DHT22;13001;51.968;5.918;2024-03-06T08:11:36;8.20;99.90
22769;DHT22;13001;51.968;5.918;2024-03-06T08:14:03;8.20;99.90
22769;DHT22;13001;51.968;5.918;2024-03-06T08:16:31;8.30;99.90
22769;DHT22;13001;51.968;5.918;2024-03-06T08:18:59;8.40;99.90
22769;DHT22;13001;51.968;5.918;2024-03-06T08:21:27;8.50;99.90
22769;DHT22;13001;51.968;5.918;2024-03-06T08:23:54;8.60;99.90
22769;DHT22;13001;51.968;5.918;2024-03-06T08:26:22;8.60;99.90
22769;DHT22;13001;51.968;5.918;2024-03-06T08:28:50;8.70;99.90
22769;DHT22;13001;51.968;5.918;2024-03-06T08:31:18;8.70;99.90
22769;DHT22;13001;51.968;5.918;2024-03-06T08:33:47;8.70;99.90
22769;DHT22;13001;51.968;5.918;2024-03-06T08:36:15;8.80;99.90
22769;DHT22;13001;51.968;5.918;2024-03-06T08:38:42;8.90;99.90
22769;DHT22;13001;51.968;5.918;2024-03-06T08:41:10;8.90;99.90
22769;DHT22;13001;51.968;5.918;2024-03-06T08:43:37;8.90;99.90
22769;DHT22;13001;51.968;5.918;2024-03-06T08:46:05;8.90;99.90
22769;DHT22;13001;51.968;5.918;2024-03-06T08:48:32;9.00;99.90
22769;DHT22;13001;51.968;5.918;2024-03-06T08:51:00;9.10;99.90
22769;DHT22;13001;51.968;5.918;2024-03-06T08:53:27;9.20;99.90
22769;DHT22;13001;51.968;5.918;2024-03-06T08:55:55;9.30;99.90
22769;DHT22;13001;51.968;5.918;2024-03-06T08:58:22;9.50;99.90
22769;DHT22;13001;51.968;5.918;2024-03-06T09:00:50;9.60;99.90
22769;DHT22;13001;51.968;5.918;2024-03-06T09:03:17;9.70;99.90
22769;DHT22;13001;51.968;5.918;2024-03-06T09:05:45;9.80;99.90
22769;DHT22;13001;51.968;5.918;2024-03-06T09:08:12;10.00;99.90
22769;DHT22;13001;51.968;5.918;2024-03-06T09:10:40;10.10;99.90
22769;DHT22;13001;51.968;5.918;2024-03-06T09:13:07;10.10;99.90
22769;DHT22;13001;51.968;5.918;2024-03-06T09:15:35;10.00;99.90
22769;DHT22;13001;51.968;5.918;2024-03-06T09:18:03;10.00;99.90
22769;DHT22;13001;51.968;5.918;2024-03-06T09:20:30;9.90;99.90
22769;DHT22;13001;51.968;5.918;2024-03-06T09:22:58;10.00;99.90
22769;DHT22;13001;51.968;5.918;2024-03-06T09:25:26;10.00;99.90
22769;DHT22;13001;51.968;5.918;2024-03-06T09:27:55;10.00;99.90
22769;DHT22;13001;51.968;5.918;2024-03-06T09:30:23;10.00;99.90
22769;DHT22;13001;51.968;5.918;2024-03-06T09:32:51;10.10;99.90
22769;DHT22;13001;51.968;5.918;2024-03-06T09:35:18;10.10;99.90
22769;DHT22;13001;51.968;5.918;2024-03-06T09:37:46;10.20;99.90
22769;DHT22;13001;51.968;5.918;2024-03-06T09:40:21;10.30;99.90
22769;DHT22;13001;51.968;5.918;2024-03-06T09:42:50;10.30;99.90
22769;DHT22;13001;51.968;5.918;2024-03-06T09:45:18;10.40;99.90
22769;DHT22;13001;51.968;5.918;2024-03-06T09:47:50;10.40;99.90
22769;DHT22;13001;51.968;5.918;2024-03-06T09:50:19;10.40;99.90
22769;DHT22;13001;51.968;5.918;2024-03-06T09:52:51;10.40;99.90
22769;DHT22;13001;51.968;5.918;2024-03-06T09:55:20;10.50;99.90
22769;DHT22;13001;51.968;5.918;2024-03-06T09:57:48;10.50;99.90
22769;DHT22;13001;51.968;5.918;2024-03-06T10:00:16;10.60;99.90
22769;DHT22;13001;51.968;5.918;2024-03-06T10:03:02;10.70;99.90
22769;DHT22;13001;51.968;5.918;2024-03-06T10:05:34;10.70;99.90
22769;DHT22;13001;51.968;5.918;2024-03-06T10:08:02;10.70;99.90
22769;DHT22;13001;51.968;5.918;2024-03-06T10:10:31;10.70;99.90
22769;DHT22;13001;51.968;5.918;2024-03-06T10:12:59;10.70;99.90
22769;DHT22;13001;51.968;5.918;2024-03-06T10:15:27;10.70;99.90
22769;DHT22;13001;51.968;5.918;2024-03-06T10:18:12;10.70;99.90
22769;DHT22;13001;51.968;5.918;2024-03-06T10:20:41;10.70;99.90
22769;DHT22;13001;51.968;5.918;2024-03-06T10:23:09;10.70;99.90
22769;DHT22;13001;51.968;5.918;2024-03-06T10:25:37;10.70;99.90
22769;DHT22;13001;51.968;5.918;2024-03-06T10:28:09;10.70;99.90
22769;DHT22;13001;51.968;5.918;2024-03-06T10:30:38;10.70;99.90
22769;DHT22;13001;51.968;5.918;2024-03-06T10:33:08;10.70;99.90
22769;DHT22;13001;51.968;5.918;2024-03-06T10:35:36;10.70;99.90
22769;DHT22;13001;51.968;5.918;2024-03-06T10:38:05;10.60;99.90
22769;DHT22;13001;51.968;5.918;2024-03-06T10:40:36;10.60;99.90
22769;DHT22;13001;51.968;5.918;2024-03-06T10:43:04;10.60;99.90
22769;DHT22;13001;51.968;5.918;2024-03-06T10:48:18;10.50;99.90
22769;DHT22;13001;51.968;5.918;2024-03-06T10:50:47;10.50;99.90
22769;DHT22;13001;51.968;5.918;2024-03-06T10:53:17;10.60;99.90
22769;DHT22;13001;51.968;5.918;2024-03-06T10:55:49;10.70;99.90
22769;DHT22;13001;51.968;5.918;2024-03-06T10:58:19;10.90;99.90
22769;DHT22;13001;51.968;5.918;2024-03-06T11:00:48;11.20;99.90
22769;DHT22;13001;51.968;5.918;2024-03-06T11:03:17;11.30;99.90
22769;DHT22;13001;51.968;5.918;2024-03-06T11:05:45;11.30;99.90
22769;DHT22;13001;51.968;5.918;2024-03-06T11:08:17;11.30;99.90
22769;DHT22;13001;51.968;5.918;2024-03-06T11:10:44;11.50;99.90
22769;DHT22;13001;51.968;5.918;2024-03-06T11:15:51;12.00;99.90
22769;DHT22;13001;51.968;5.918;2024-03-06T11:23:32;12.40;99.90
22769;DHT22;13001;51.968;5.918;2024-03-06T11:26:04;12.50;99.90
22769;DHT22;13001;51.968;5.918;2024-03-06T11:28:34;12.40;99.90
22769;DHT22;13001;51.968;5.918;2024-03-06T11:31:04;12.30;99.90
22769;DHT22;13001;51.968;5.918;2024-03-06T11:33:39;12.10;99.90
22769;DHT22;13001;51.968;5.918;2024-03-06T11:36:21;12.00;99.90
22769;DHT22;13001;51.968;5.918;2024-03-06T11:38:52;11.90;99.90
22769;DHT22;13001;51.968;5.918;2024-03-06T11:41:21;12.10;99.90
22769;DHT22;13001;51.968;5.918;2024-03-06T11:43:50;12.30;99.90
22769;DHT22;13001;51.968;5.918;2024-03-06T11:46:23;12.40;99.90
22769;DHT22;13001;51.968;5.918;2024-03-06T11:48:53;12.50;99.90
22769;DHT22;13001;51.968;5.918;2024-03-06T11:51:22;12.60;99.90
22769;DHT22;13001;51.968;5.918;2024-03-06T11:53:53;12.90;99.90
22769;DHT22;13001;51.968;5.918;2024-03-06T11:56:20;13.00;99.90
22769;DHT22;13001;51.968;5.918;2024-03-06T11:58:48;13.00;99.90
22769;DHT22;13001;51.968;5.918;2024-03-06T12:01:16;13.00;99.90
22769;DHT22;13001;51.968;5.918;2024-03-06T12:03:47;13.10;99.90
22769;DHT22;13001;51.968;5.918;2024-03-06T12:06:15;13.20;99.90
22769;DHT22;13001;51.968;5.918;2024-03-06T12:08:45;13.30;99.90
22769;DHT22;13001;51.968;5.918;2024-03-06T12:11:12;13.30;99.60
22769;DHT22;13001;51.968;5.918;2024-03-06T12:13:41;13.30;99.90
22769;DHT22;13001;51.968;5.918;2024-03-06T12:16:09;13.30;99.60
22769;DHT22;13001;51.968;5.918;2024-03-06T12:18:38;13.30;99.30
22769;DHT22;13001;51.968;5.918;2024-03-06T12:21:05;13.40;99.00
22769;DHT22;13001;51.968;5.918;2024-03-06T12:23:33;13.30;98.90
22769;DHT22;13001;51.968;5.918;2024-03-06T12:26:04;13.40;99.20
22769;DHT22;13001;51.968;5.918;2024-03-06T12:28:33;13.50;99.40
22769;DHT22;13001;51.968;5.918;2024-03-06T12:31:02;13.70;99.70
22769;DHT22;13001;51.968;5.918;2024-03-06T12:33:31;13.80;98.80
22769;DHT22;13001;51.968;5.918;2024-03-06T12:36:07;13.90;98.60
22769;DHT22;13001;51.968;5.918;2024-03-06T12:38:40;14.00;98.30
22769;DHT22;13001;51.968;5.918;2024-03-06T12:41:07;14.20;98.10
22769;DHT22;13001;51.968;5.918;2024-03-06T12:43:34;14.20;97.80
22769;DHT22;13001;51.968;5.918;2024-03-06T12:46:02;14.10;97.60
22769;DHT22;13001;51.968;5.918;2024-03-06T12:48:29;14.20;97.50
22769;DHT22;13001;51.968;5.918;2024-03-06T12:50:57;14.20;97.80
22769;DHT22;13001;51.968;5.918;2024-03-06T12:53:26;14.30;97.80
22769;DHT22;13001;51.968;5.918;2024-03-06T12:55:54;14.30;97.70
22769;DHT22;13001;51.968;5.918;2024-03-06T12:58:21;14.30;97.30
22769;DHT22;13001;51.968;5.918;2024-03-06T13:00:49;14.30;97.00
22769;DHT22;13001;51.968;5.918;2024-03-06T13:03:19;14.40;96.80
22769;DHT22;13001;51.968;5.918;2024-03-06T13:05:46;14.40;96.70
22769;DHT22;13001;51.968;5.918;2024-03-06T13:08:14;14.40;96.30
22769;DHT22;13001;51.968;5.918;2024-03-06T13:10:42;14.30;96.10
22769;DHT22;13001;51.968;5.918;2024-03-06T13:13:11;14.20;96.00
22769;DHT22;13001;51.968;5.918;2024-03-06T13:15:40;14.20;96.60
22769;DHT22;13001;51.968;5.918;2024-03-06T13:18:07;14.30;96.60
22769;DHT22;13001;51.968;5.918;2024-03-06T13:20:35;14.40;95.90
22769;DHT22;13001;51.968;5.918;2024-03-06T13:23:02;14.60;95.70
22769;DHT22;13001;51.968;5.918;2024-03-06T13:25:30;14.60;95.70
22769;DHT22;13001;51.968;5.918;2024-03-06T13:27:58;14.60;95.00
22769;DHT22;13001;51.968;5.918;2024-03-06T13:30:25;14.50;94.50
22769;DHT22;13001;51.968;5.918;2024-03-06T13:32:53;14.50;94.50
22769;DHT22;13001;51.968;5.918;2024-03-06T13:35:22;14.30;94.40
22769;DHT22;13001;51.968;5.918;2024-03-06T13:37:50;14.20;94.10
22769;DHT22;13001;51.968;5.918;2024-03-06T13:40:18;14.00;94.30
22769;DHT22;13001;51.968;5.918;2024-03-06T13:42:47;13.80;94.50
22769;DHT22;13001;51.968;5.918;2024-03-06T13:45:15;13.60;94.80
22769;DHT22;13001;51.968;5.918;2024-03-06T13:47:44;13.30;94.80
22769;DHT22;13001;51.968;5.918;2024-03-06T13:50:14;13.20;95.20
22769;DHT22;13001;51.968;5.918;2024-03-06T13:52:42;13.20;95.10
22769;DHT22;13001;51.968;5.918;2024-03-06T13:55:10;13.20;95.10
22769;DHT22;13001;51.968;5.918;2024-03-06T13:57:41;13.30;95.10
22769;DHT22;13001;51.968;5.918;2024-03-06T14:00:09;13.40;95.00
22769;DHT22;13001;51.968;5.918;2024-03-06T14:02:41;13.30;94.90
22769;DHT22;13001;51.968;5.918;2024-03-06T14:05:08;13.30;94.70
22769;DHT22;13001;51.968;5.918;2024-03-06T14:07:37;13.20;94.50
22769;DHT22;13001;51.968;5.918;2024-03-06T14:10:07;13.20;94.10
22769;DHT22;13001;51.968;5.918;2024-03-06T14:12:37;13.20;93.80
22769;DHT22;13001;51.968;5.918;2024-03-06T14:15:08;13.20;93.30
22769;DHT22;13001;51.968;5.918;2024-03-06T14:17:37;13.10;93.00
22769;DHT22;13001;51.968;5.918;2024-03-06T14:20:05;13.20;92.90
22769;DHT22;13001;51.968;5.918;2024-03-06T14:22:33;13.20;92.60
22769;DHT22;13001;51.968;5.918;2024-03-06T14:25:04;13.20;91.80
22769;DHT22;13001;51.968;5.918;2024-03-06T14:27:31;13.20;91.40
22769;DHT22;13001;51.968;5.918;2024-03-06T14:29:58;13.30;91.40
22769;DHT22;13001;51.968;5.918;2024-03-06T14:32:26;13.40;91.80
22769;DHT22;13001;51.968;5.918;2024-03-06T14:34:54;13.40;92.10
22769;DHT22;13001;51.968;5.918;2024-03-06T14:37:22;13.50;91.90
22769;DHT22;13001;51.968;5.918;2024-03-06T14:39:50;13.60;91.90
22769;DHT22;13001;51.968;5.918;2024-03-06T14:42:20;13.60;92.10
22769;DHT22;13001;51.968;5.918;2024-03-06T14:44:47;13.60;91.80
22769;DHT22;13001;51.968;5.918;2024-03-06T14:47:15;13.60;91.70
22769;DHT22;13001;51.968;5.918;2024-03-06T14:49:43;13.50;91.20
22769;DHT22;13001;51.968;5.918;2024-03-06T14:52:13;13.40;91.10
22769;DHT22;13001;51.968;5.918;2024-03-06T14:54:41;13.40;90.20
22769;DHT22;13001;51.968;5.918;2024-03-06T14:57:09;13.30;90.50
22769;DHT22;13001;51.968;5.918;2024-03-06T14:59:39;13.30;90.70
22769;DHT22;13001;51.968;5.918;2024-03-06T15:02:06;13.30;90.80
22769;DHT22;13001;51.968;5.918;2024-03-06T15:04:34;13.20;91.00
22769;DHT22;13001;51.968;5.918;2024-03-06T15:07:04;13.20;91.00
22769;DHT22;13001;51.968;5.918;2024-03-06T15:09:32;13.10;91.00
22769;DHT22;13001;51.968;5.918;2024-03-06T15:11:59;13.00;90.90
22769;DHT22;13001;51.968;5.918;2024-03-06T15:14:29;13.00;90.90
22769;DHT22;13001;51.968;5.918;2024-03-06T15:16:59;13.00;90.40
22769;DHT22;13001;51.968;5.918;2024-03-06T15:19:26;12.90;90.20
22769;DHT22;13001;51.968;5.918;2024-03-06T15:21:54;12.80;90.40
22769;DHT22;13001;51.968;5.918;2024-03-06T15:24:22;12.70;90.60
22769;DHT22;13001;51.968;5.918;2024-03-06T15:26:50;12.70;90.50
22769;DHT22;13001;51.968;5.918;2024-03-06T15:29:18;12.70;90.40
22769;DHT22;13001;51.968;5.918;2024-03-06T15:31:52;12.70;90.40
22769;DHT22;13001;51.968;5.918;2024-03-06T15:34:22;12.60;90.60
22769;DHT22;13001;51.968;5.918;2024-03-06T15:36:50;12.60;90.60
22769;DHT22;13001;51.968;5.918;2024-03-06T15:39:18;12.60;91.10
22769;DHT22;13001;51.968;5.918;2024-03-06T15:41:47;12.50;91.40
22769;DHT22;13001;51.968;5.918;2024-03-06T15:44:16;12.50;91.70
22769;DHT22;13001;51.968;5.918;2024-03-06T15:46:45;12.40;91.60
22769;DHT22;13001;51.968;5.918;2024-03-06T15:49:21;12.40;91.80
22769;DHT22;13001;51.968;5.918;2024-03-06T15:51:52;12.30;91.60
22769;DHT22;13001;51.968;5.918;2024-03-06T15:54:21;12.30;91.30
22769;DHT22;13001;51.968;5.918;2024-03-06T15:56:48;12.20;91.20